createdAt,value
2022-12-18T00:00:25.099Z,100537.00
2022-12-18T00:03:27.337Z,100549.41
2022-12-18T00:06:30.148Z,100545.69
2022-12-18T00:09:40.090Z,100552.22
2022-12-18T00:12:43.196Z,100568.09
2022-12-18T00:15:46.868Z,100565.78
2022-12-18T00:18:51.550Z,100576.09
2022-12-18T00:21:53.746Z,100580.19
2022-12-18T00:24:56.444Z,100590.50
2022-12-18T00:27:58.572Z,100597.59
2022-12-18T00:31:14.873Z,100600.38
2022-12-18T00:34:17.379Z,100601.09
2022-12-18T00:37:20.380Z,100610.63
2022-12-18T00:40:22.780Z,100605.31
2022-12-18T00:43:25.144Z,100608.62
2022-12-18T00:46:27.321Z,100613.00
2022-12-18T00:49:29.572Z,100619.16
2022-12-18T00:52:31.873Z,100626.44
2022-12-18T00:55:34.125Z,100631.53
2022-12-18T00:58:39.351Z,100629.87
2022-12-18T01:01:41.698Z,100629.41
2022-12-18T01:04:44.043Z,100628.47
2022-12-18T01:07:46.238Z,100637.97
2022-12-18T01:10:48.511Z,100638.62
2022-12-18T01:13:50.738Z,100648.62
2022-12-18T01:16:52.971Z,100645.81
2022-12-18T01:19:55.196Z,100650.25
2022-12-18T01:22:57.348Z,100643.84
2022-12-18T01:25:59.543Z,100663.00
2022-12-18T01:29:01.783Z,100663.00
2022-12-18T01:32:04.157Z,100661.72
2022-12-18T01:35:07.028Z,100660.72
2022-12-18T01:38:09.363Z,100665.31
2022-12-18T01:41:11.766Z,100665.41
2022-12-18T01:44:51.713Z,100662.34
2022-12-18T01:47:59.926Z,100666.16
2022-12-18T01:51:02.559Z,100667.78
2022-12-18T01:54:04.832Z,100671.69
2022-12-18T01:57:07.117Z,100677.44
2022-12-18T02:00:20.219Z,100675.13
2022-12-18T02:03:22.482Z,100682.94
2022-12-18T02:06:32.038Z,100689.88
2022-12-18T02:09:37.781Z,100689.31
2022-12-18T02:13:13.557Z,100685.75
2022-12-18T02:16:31.472Z,100696.38
2022-12-18T02:19:52.096Z,100708.84
2022-12-18T02:23:05.798Z,100713.22
2022-12-18T02:26:21.933Z,100715.41
2022-12-18T02:29:30.325Z,100714.56
2022-12-18T02:32:36.075Z,100716.94
2022-12-18T02:35:39.934Z,100722.56
2022-12-18T02:38:43.800Z,100724.84
2022-12-18T02:41:46.216Z,100730.91
2022-12-18T02:44:51.383Z,100734.06
2022-12-18T02:47:53.622Z,100738.69
2022-12-18T02:51:01.141Z,100739.00
2022-12-18T02:54:32.548Z,100741.53
2022-12-18T02:57:38.442Z,100743.06
2022-12-18T03:00:44.430Z,100742.47
2022-12-18T03:03:53.224Z,100744.28
2022-12-18T03:06:58.192Z,100742.16
2022-12-18T03:10:01.652Z,100745.53
2022-12-18T03:13:07.464Z,100757.88
2022-12-18T03:16:13.429Z,100760.66
2022-12-18T03:19:19.151Z,100763.94
2022-12-18T03:22:22.053Z,100771.47
2022-12-18T03:25:25.636Z,100769.41
2022-12-18T03:28:29.417Z,100771.66
2022-12-18T03:31:32.920Z,100781.59
2022-12-18T03:34:37.208Z,100786.97
2022-12-18T03:37:39.537Z,100793.50
2022-12-18T03:40:54.112Z,100793.34
2022-12-18T03:44:04.726Z,100796.78
2022-12-18T03:47:25.388Z,100793.69
2022-12-18T03:51:03.453Z,100795.12
2022-12-18T03:54:06.580Z,100803.66
2022-12-18T03:57:15.840Z,100800.91
2022-12-18T04:00:19.970Z,100801.84
2022-12-18T04:03:26.245Z,100810.78
2022-12-18T04:06:30.288Z,100802.22
2022-12-18T04:09:33.605Z,100815.38
2022-12-18T04:12:35.922Z,100801.41
2022-12-18T04:15:38.724Z,100812.03
2022-12-18T04:18:41.001Z,100808.78
2022-12-18T04:21:43.182Z,100811.38
2022-12-18T04:24:45.367Z,100822.78
2022-12-18T04:27:47.583Z,100819.19
2022-12-18T04:30:50.207Z,100822.94
2022-12-18T04:33:52.392Z,100824.41
2022-12-18T04:36:54.529Z,100833.03
2022-12-18T04:39:56.951Z,100835.28
2022-12-18T04:42:59.168Z,100839.91
2022-12-18T04:46:06.328Z,100845.84
2022-12-18T04:49:08.883Z,100841.13
2022-12-18T04:52:11.090Z,100859.28
2022-12-18T04:55:13.324Z,100854.72
2022-12-18T04:58:15.881Z,100860.06
2022-12-18T05:01:20.359Z,100869.66
2022-12-18T05:04:22.685Z,100875.94
2022-12-18T05:07:25.114Z,100872.47
2022-12-18T05:10:27.276Z,100888.84
2022-12-18T05:13:30.848Z,100882.22
2022-12-18T05:16:33.060Z,100884.50
2022-12-18T05:19:35.287Z,100894.59
2022-12-18T05:22:37.565Z,100887.16
2022-12-18T05:25:39.754Z,100888.69
2022-12-18T05:28:41.951Z,100892.16
2022-12-18T05:31:44.234Z,100895.09
2022-12-18T05:34:46.865Z,100901.13
2022-12-18T05:37:49.040Z,100898.09
2022-12-18T05:40:52.069Z,100916.13
2022-12-18T05:43:54.232Z,100918.56
2022-12-18T05:46:56.495Z,100917.16
2022-12-18T05:49:58.877Z,100918.06
2022-12-18T05:53:01.058Z,100926.06
2022-12-18T05:56:05.187Z,100919.81
2022-12-18T05:59:07.410Z,100923.69
2022-12-18T06:02:09.683Z,100920.12
2022-12-18T06:05:12.124Z,100929.13
2022-12-18T06:08:14.672Z,100936.72
2022-12-18T06:11:22.194Z,100935.03
2022-12-18T06:14:24.389Z,100937.97
2022-12-18T06:17:30.759Z,100942.16
2022-12-18T06:20:33.796Z,100939.56
2022-12-18T06:23:37.287Z,100939.56
2022-12-18T06:26:40.155Z,100942.16
2022-12-18T06:29:42.342Z,100956.72
2022-12-18T06:32:44.522Z,100953.38
2022-12-18T06:35:50.021Z,100960.19
2022-12-18T06:38:52.244Z,100963.16
2022-12-18T06:41:54.493Z,100978.84
2022-12-18T06:44:56.682Z,100987.53
2022-12-18T06:47:58.923Z,100986.03
2022-12-18T06:51:01.885Z,100983.56
2022-12-18T06:54:04.710Z,100990.88
2022-12-18T06:57:06.883Z,101001.78
2022-12-18T07:00:09.539Z,100999.97
2022-12-18T07:03:11.881Z,100999.44
2022-12-18T07:06:16.194Z,101006.31
2022-12-18T07:09:18.330Z,101003.63
2022-12-18T07:12:20.579Z,101011.97
2022-12-18T07:15:22.783Z,101018.50
2022-12-18T07:18:24.990Z,101023.25
2022-12-18T07:21:27.260Z,101029.59
2022-12-18T07:24:29.554Z,101035.94
2022-12-18T07:27:31.737Z,101036.66
2022-12-18T07:30:34.430Z,101035.56
2022-12-18T07:33:36.887Z,101044.09
2022-12-18T07:36:39.680Z,101050.91
2022-12-18T07:39:41.852Z,101054.19
2022-12-18T07:42:44.118Z,101060.16
2022-12-18T07:45:46.441Z,101058.41
2022-12-18T07:48:49.704Z,101067.59
2022-12-18T07:51:52.559Z,101073.97
2022-12-18T07:54:54.780Z,101081.00
2022-12-18T07:58:00.985Z,101088.78
2022-12-18T08:01:13.523Z,101093.75
2022-12-18T08:04:15.888Z,101094.69
2022-12-18T08:07:18.050Z,101098.66
2022-12-18T08:10:21.148Z,101110.41
2022-12-18T08:13:23.382Z,101109.47
2022-12-18T08:16:25.804Z,101109.25
2022-12-18T08:19:28.004Z,101112.34
2022-12-18T08:22:30.200Z,101112.41
2022-12-18T08:25:32.476Z,101112.56
2022-12-18T08:28:35.358Z,101115.44
2022-12-18T08:31:37.570Z,101121.97
2022-12-18T08:34:40.017Z,101129.28
2022-12-18T08:37:42.207Z,101127.22
2022-12-18T08:40:44.815Z,101130.62
2022-12-18T08:44:06.177Z,101136.94
2022-12-18T08:47:09.166Z,101132.69
2022-12-18T08:50:12.932Z,101121.97
2022-12-18T08:53:15.294Z,101122.34
2022-12-18T08:56:17.732Z,101127.81
2022-12-18T08:59:20.773Z,101131.78
2022-12-18T09:02:24.218Z,101134.56
2022-12-18T09:05:26.933Z,101138.06
2022-12-18T09:08:29.322Z,101138.25
2022-12-18T09:11:32.565Z,101148.56
2022-12-18T09:14:34.818Z,101149.34
2022-12-18T09:17:37.012Z,101152.78
2022-12-18T09:20:39.634Z,101161.38
2022-12-18T09:23:42.173Z,101168.22
2022-12-18T09:26:47.073Z,101163.03
2022-12-18T09:29:49.753Z,101165.59
2022-12-18T09:32:51.956Z,101175.59
2022-12-18T09:35:54.110Z,101158.25
2022-12-18T09:38:56.438Z,101160.97
2022-12-18T09:41:59.665Z,101160.44
2022-12-18T09:45:02.307Z,101157.81
2022-12-18T09:48:05.373Z,101158.19
2022-12-18T09:51:38.882Z,101161.38
2022-12-18T09:54:46.790Z,101162.72
2022-12-18T09:57:51.184Z,101159.84
2022-12-18T10:00:56.867Z,101160.84
2022-12-18T10:03:59.609Z,101156.47
2022-12-18T10:07:09.431Z,101161.88
2022-12-18T10:10:24.557Z,101155.31
2022-12-18T10:13:37.545Z,101160.31
2022-12-18T10:16:57.527Z,101152.75
2022-12-18T10:20:02.313Z,101151.72
2022-12-18T10:23:22.471Z,101142.59
2022-12-18T10:26:29.262Z,101148.75
2022-12-18T10:29:31.544Z,101151.16
2022-12-18T10:32:33.704Z,101153.81
2022-12-18T10:35:36.709Z,101153.78
2022-12-18T10:38:39.441Z,101148.44
2022-12-18T10:41:42.004Z,101150.69
2022-12-18T10:44:44.285Z,101149.56
2022-12-18T10:47:49.808Z,101138.66
2022-12-18T10:51:12.644Z,101140.78
2022-12-18T10:54:18.432Z,101139.81
2022-12-18T10:57:39.688Z,101150.81
2022-12-18T11:00:42.366Z,101148.44
2022-12-18T11:03:45.943Z,101152.09
2022-12-18T11:07:08.472Z,101155.84
2022-12-18T11:10:17.720Z,101146.50
2022-12-18T11:13:22.860Z,101144.94
2022-12-18T11:16:25.244Z,101143.41
2022-12-18T11:19:36.366Z,101144.09
2022-12-18T11:22:39.348Z,101140.56
2022-12-18T11:25:53.114Z,101140.81
2022-12-18T11:29:10.148Z,101139.53
2022-12-18T11:32:35.328Z,101148.84
2022-12-18T11:35:53.572Z,101138.75
2022-12-18T11:38:56.620Z,101144.00
2022-12-18T11:42:28.761Z,101142.13
2022-12-18T11:45:37.473Z,101135.31
2022-12-18T11:49:12.494Z,101132.03
2022-12-18T11:52:17.739Z,101123.91
2022-12-18T11:55:34.889Z,101128.84
2022-12-18T11:58:55.989Z,101123.06
2022-12-18T12:02:28.451Z,101130.72
2022-12-18T12:05:55.411Z,101126.22
2022-12-18T12:09:12.006Z,101113.06
2022-12-18T12:12:48.565Z,101121.84
2022-12-18T12:16:22.721Z,101119.47
2022-12-18T12:19:36.831Z,101123.97
2022-12-18T12:22:51.257Z,101124.06
2022-12-18T12:26:02.623Z,101121.97
2022-12-18T12:29:21.277Z,101122.81
2022-12-18T12:32:46.861Z,101121.97
2022-12-18T12:36:37.815Z,101121.13
2022-12-18T12:39:42.835Z,101124.87
2022-12-18T12:43:08.606Z,101126.06
2022-12-18T12:46:15.356Z,101128.66
2022-12-18T12:49:19.976Z,101128.28
2022-12-18T12:52:30.446Z,101132.53
2022-12-18T12:55:33.239Z,101147.00
2022-12-18T12:59:14.143Z,101153.28
2022-12-18T13:02:36.999Z,101155.34
2022-12-18T13:05:52.264Z,101155.87
2022-12-18T13:09:00.006Z,101157.28
2022-12-18T13:12:29.434Z,101167.69
2022-12-18T13:15:36.791Z,101172.81
2022-12-18T13:18:50.182Z,101171.28
2022-12-18T13:21:57.004Z,101164.69
2022-12-18T13:24:59.214Z,101165.53
2022-12-18T13:28:12.875Z,101167.31
2022-12-18T13:31:31.052Z,101165.53
2022-12-18T13:34:34.173Z,101170.19
2022-12-18T13:37:40.752Z,101184.91
2022-12-18T13:40:48.985Z,101176.69
2022-12-18T13:43:53.058Z,101184.19
2022-12-18T13:46:55.433Z,101194.34
2022-12-18T13:49:58.272Z,101194.53
2022-12-18T13:53:00.870Z,101194.13
2022-12-18T13:56:04.429Z,101197.56
2022-12-18T13:59:17.440Z,101189.63
2022-12-18T14:02:28.601Z,101199.53
2022-12-18T14:05:33.867Z,101201.12
2022-12-18T14:08:40.941Z,101205.22
2022-12-18T14:11:48.417Z,101199.59
2022-12-18T14:14:52.552Z,101200.53
2022-12-18T14:18:27.770Z,101200.84
2022-12-18T14:21:31.027Z,101193.06
2022-12-18T14:24:33.452Z,101190.16
2022-12-18T14:27:38.733Z,101195.91
2022-12-18T14:30:45.310Z,101202.66
2022-12-18T14:33:47.636Z,101198.28
2022-12-18T14:36:54.996Z,101198.06
2022-12-18T14:40:10.165Z,101203.31
2022-12-18T14:43:15.671Z,101206.75
2022-12-18T14:46:32.420Z,101212.28
2022-12-18T14:49:35.297Z,101210.97
2022-12-18T14:52:38.751Z,101217.78
2022-12-18T14:55:48.043Z,101231.44
2022-12-18T14:59:02.811Z,101233.81
2022-12-18T15:02:18.612Z,101241.66
2022-12-18T15:05:30.084Z,101240.81
2022-12-18T15:08:36.900Z,101247.34
2022-12-18T15:11:39.153Z,101249.72
2022-12-18T15:14:42.381Z,101253.03
2022-12-18T15:17:44.851Z,101259.56
2022-12-18T15:20:53.632Z,101262.22
2022-12-18T15:23:56.598Z,101265.56
2022-12-18T15:27:01.913Z,101258.09
2022-12-18T15:30:13.292Z,101263.91
2022-12-18T15:33:28.033Z,101276.09
2022-12-18T15:36:31.207Z,101270.59
2022-12-18T15:39:33.443Z,101271.59
2022-12-18T15:42:54.888Z,101273.03
2022-12-18T15:45:57.310Z,101281.53
2022-12-18T15:49:02.467Z,101280.94
2022-12-18T15:52:05.954Z,101291.94
2022-12-18T15:55:39.268Z,101297.16
2022-12-18T15:58:42.563Z,101305.75
2022-12-18T16:01:47.782Z,101320.72
2022-12-18T16:04:51.492Z,101318.50
2022-12-18T16:07:54.358Z,101327.91
2022-12-18T16:10:58.023Z,101327.44
2022-12-18T16:14:00.489Z,101325.69
2022-12-18T16:17:05.917Z,101328.97
2022-12-18T16:20:22.852Z,101337.03
2022-12-18T16:23:25.474Z,101334.94
2022-12-18T16:26:27.911Z,101333.94
2022-12-18T16:29:31.343Z,101341.28
2022-12-18T16:32:33.914Z,101342.25
2022-12-18T16:35:38.297Z,101345.41
2022-12-18T16:38:40.984Z,101342.97
2022-12-18T16:41:43.987Z,101341.97
2022-12-18T16:44:47.382Z,101345.34
2022-12-18T16:47:50.317Z,101342.25
2022-12-18T16:51:02.659Z,101349.03
2022-12-18T16:54:09.719Z,101353.31
2022-12-18T16:57:16.620Z,101354.38
2022-12-18T17:00:19.040Z,101358.06
2022-12-18T17:03:21.905Z,101357.91
2022-12-18T17:06:25.193Z,101360.34
2022-12-18T17:09:27.791Z,101360.66
2022-12-18T17:12:30.278Z,101356.56
2022-12-18T17:15:35.934Z,101349.66
2022-12-18T17:18:38.804Z,101341.66
2022-12-18T17:21:41.335Z,101340.66
2022-12-18T17:24:43.646Z,101336.38
2022-12-18T17:27:46.311Z,101344.41
2022-12-18T17:30:48.497Z,101341.72
2022-12-18T17:33:51.216Z,101348.84
2022-12-18T17:36:53.724Z,101351.50
2022-12-18T17:39:56.166Z,101340.81
2022-12-18T17:42:58.365Z,101350.44
2022-12-18T17:46:04.493Z,101340.03
2022-12-18T17:49:10.466Z,101347.19
2022-12-18T17:52:12.982Z,101350.28
2022-12-18T17:55:16.229Z,101353.03
2022-12-18T17:58:18.707Z,101356.88
2022-12-18T18:01:24.381Z,101355.75
2022-12-18T18:04:27.041Z,101347.31
2022-12-18T18:07:29.520Z,101347.59
2022-12-18T18:10:33.771Z,101342.50
2022-12-18T18:14:07.074Z,101347.78
2022-12-18T18:17:09.621Z,101354.88
2022-12-18T18:20:12.205Z,101353.91
2022-12-18T18:23:15.062Z,101358.94
2022-12-18T18:26:17.567Z,101360.56
2022-12-18T18:29:23.585Z,101356.53
2022-12-18T18:32:28.804Z,101362.59
2022-12-18T18:35:53.428Z,101360.50
2022-12-18T18:38:54.763Z,101351.41
2022-12-18T18:41:57.506Z,101360.62
2022-12-18T18:45:00.046Z,101365.06
2022-12-18T18:48:06.563Z,101372.25
2022-12-18T18:51:20.795Z,101369.72
2022-12-18T18:54:27.213Z,101374.28
2022-12-18T18:57:30.739Z,101375.06
2022-12-18T19:00:34.634Z,101383.72
2022-12-18T19:03:39.105Z,101382.47
2022-12-18T19:06:42.964Z,101387.59
2022-12-18T19:09:52.486Z,101398.06
2022-12-18T19:13:13.478Z,101406.72
2022-12-18T19:16:15.944Z,101406.72
2022-12-18T19:19:21.112Z,101405.09
2022-12-18T19:22:24.186Z,101405.63
2022-12-18T19:25:40.205Z,101407.91
2022-12-18T19:28:45.098Z,101410.91
2022-12-18T19:31:47.919Z,101422.09
2022-12-18T19:34:50.537Z,101427.31
2022-12-18T19:37:53.248Z,101424.78
2022-12-18T19:40:56.421Z,101430.84
2022-12-18T19:43:58.743Z,101436.16
2022-12-18T19:47:01.551Z,101447.97
2022-12-18T19:50:04.766Z,101451.34
2022-12-18T19:53:07.669Z,101445.22
2022-12-18T19:56:18.174Z,101450.66
2022-12-18T19:59:20.882Z,101448.91
2022-12-18T20:02:23.510Z,101454.03
2022-12-18T20:05:27.276Z,101455.25
2022-12-18T20:08:29.981Z,101451.63
2022-12-18T20:11:33.460Z,101436.94
2022-12-18T20:14:39.348Z,101443.13
2022-12-18T20:17:41.932Z,101450.00
2022-12-18T20:20:44.799Z,101453.50
2022-12-18T20:23:49.508Z,101465.34
2022-12-18T20:26:52.801Z,101474.03
2022-12-18T20:29:55.825Z,101464.50
2022-12-18T20:33:01.275Z,101465.41
2022-12-18T20:36:07.967Z,101463.09
2022-12-18T20:39:12.231Z,101461.25
2022-12-18T20:42:15.929Z,101467.34
2022-12-18T20:45:19.021Z,101465.84
2022-12-18T20:48:26.465Z,101464.66
2022-12-18T20:51:30.608Z,101467.81
2022-12-18T20:54:32.910Z,101467.37
2022-12-18T20:57:35.412Z,101482.31
2022-12-18T21:00:40.715Z,101481.22
2022-12-18T21:03:43.704Z,101475.13
2022-12-18T21:06:54.240Z,101479.09
2022-12-18T21:10:04.296Z,101499.66
2022-12-18T21:13:08.455Z,101492.94
2022-12-18T21:16:12.517Z,101497.72
2022-12-18T21:19:17.800Z,101499.03
2022-12-18T21:22:20.203Z,101497.56
2022-12-18T21:25:22.946Z,101501.34
2022-12-18T21:28:25.196Z,101501.66
2022-12-18T21:31:30.031Z,101513.31
2022-12-18T21:34:33.197Z,101506.47
2022-12-18T21:37:35.388Z,101494.75
2022-12-18T21:40:39.242Z,101483.97
2022-12-18T21:44:00.392Z,101473.63
2022-12-18T21:47:15.151Z,101479.47
2022-12-18T21:50:24.893Z,101481.59
2022-12-18T21:53:27.121Z,101476.03
2022-12-18T21:56:47.542Z,101474.63
2022-12-18T21:59:50.597Z,101470.56
2022-12-18T22:03:07.380Z,101472.94
2022-12-18T22:06:16.051Z,101476.75
2022-12-18T22:09:20.377Z,101475.62
2022-12-18T22:12:44.147Z,101469.59
2022-12-18T22:15:46.807Z,101469.94
2022-12-18T22:18:49.111Z,101472.53
2022-12-18T22:21:51.723Z,101469.81
2022-12-18T22:24:53.975Z,101467.16
2022-12-18T22:28:14.763Z,101471.94
2022-12-18T22:31:18.370Z,101473.91
2022-12-18T22:34:22.989Z,101465.84
2022-12-18T22:37:25.497Z,101470.00
2022-12-18T22:40:28.336Z,101471.34
2022-12-18T22:43:30.559Z,101475.41
2022-12-18T22:46:35.819Z,101489.62
2022-12-18T22:49:38.764Z,101488.84
2022-12-18T22:52:41.660Z,101484.28
2022-12-18T22:55:43.877Z,101477.69
2022-12-18T22:58:51.109Z,101468.41
2022-12-18T23:01:56.248Z,101483.88
2022-12-18T23:05:01.534Z,101479.59
2022-12-18T23:08:03.848Z,101488.09
2022-12-18T23:11:06.236Z,101489.62
2022-12-18T23:14:08.414Z,101479.94
2022-12-18T23:17:10.728Z,101479.53
2022-12-18T23:20:13.512Z,101484.41
2022-12-18T23:23:15.847Z,101487.44
2022-12-18T23:26:21.083Z,101484.09
2022-12-18T23:29:23.326Z,101483.31
2022-12-18T23:32:25.539Z,101482.31
2022-12-18T23:35:27.736Z,101480.91
2022-12-18T23:38:30.823Z,101482.03
2022-12-18T23:41:33.243Z,101480.19
2022-12-18T23:44:35.424Z,101479.09
2022-12-18T23:47:37.732Z,101477.31
2022-12-18T23:50:39.893Z,101476.84
2022-12-18T23:53:42.567Z,101483.09
2022-12-18T23:56:44.832Z,101488.34
2022-12-18T23:59:47.028Z,101487.94
